Time;durP1;ratioP1;P1;durP2;ratioP2;P2;SDS_P1;SDS_P2;PMS_P1;PMS_P2;Temp;Humidity;BMP_temperature;BMP_pressure;BME280_temperature;BME280_humidity;BME280_pressure;Samples;Min_cycle;Max_cycle;Signal;HPM_P1;HPM_P2
2023/08/05 00:02:11;;;;;;;8.77;3.45;;;18.80;64.00;;;;;;4925530;28;20077;-57
2023/08/05 00:04:38;;;;;;;3.97;3.30;;;18.90;63.90;;;;;;4924809;28;20052;-57
2023/08/05 00:07:07;;;;;;;10.18;3.50;;;18.80;63.70;;;;;;4924811;28;20063;-61
2023/08/05 00:09:34;;;;;;;5.45;3.92;;;18.80;63.60;;;;;;4924399;28;20058;-57
2023/08/05 00:12:01;;;;;;;7.38;4.28;;;18.80;63.60;;;;;;4927700;28;20056;-56
2023/08/05 00:14:28;;;;;;;7.45;3.88;;;18.80;63.50;;;;;;4927677;28;20060;-57
2023/08/05 00:16:56;;;;;;;6.88;3.47;;;18.80;63.40;;;;;;4929800;28;20059;-57
2023/08/05 00:19:23;;;;;;;6.75;4.32;;;18.90;63.50;;;;;;4929214;28;20055;-56
2023/08/05 00:21:50;;;;;;;8.20;4.60;;;18.90;63.50;;;;;;4927970;28;20082;-58
2023/08/05 00:24:19;;;;;;;5.45;4.60;;;18.80;63.30;;;;;;4928957;28;20059;-56
2023/08/05 00:26:46;;;;;;;5.20;3.88;;;18.90;63.30;;;;;;4927212;28;20232;-57
2023/08/05 00:29:13;;;;;;;4.30;3.83;;;18.90;63.30;;;;;;4928514;28;20059;-57
2023/08/05 00:31:40;;;;;;;5.10;3.33;;;18.80;63.30;;;;;;4928003;28;20062;-57
2023/08/05 00:34:07;;;;;;;5.60;4.50;;;18.90;63.40;;;;;;4928404;28;20055;-57
2023/08/05 00:36:35;;;;;;;7.03;4.28;;;18.80;63.40;;;;;;4929910;28;20048;-57
2023/08/05 00:39:02;;;;;;;4.65;3.60;;;18.90;63.60;;;;;;4928998;28;20092;-57
2023/08/05 00:41:31;;;;;;;4.25;3.42;;;18.80;63.60;;;;;;4928040;28;20051;-58
2023/08/05 00:43:58;;;;;;;5.82;3.95;;;18.90;63.80;;;;;;4928773;28;20411;-56
2023/08/05 00:46:25;;;;;;;5.47;4.10;;;18.80;63.60;;;;;;4927800;28;20056;-61
2023/08/05 00:48:54;;;;;;;5.35;4.22;;;18.80;63.70;;;;;;4929250;28;20066;-57
2023/08/05 00:51:22;;;;;;;7.05;4.40;;;18.80;63.70;;;;;;4927412;28;20051;-57
2023/08/05 00:53:49;;;;;;;6.13;4.05;;;18.90;63.70;;;;;;4929370;28;20059;-58
2023/08/05 00:56:17;;;;;;;8.15;5.35;;;18.90;63.70;;;;;;4927457;28;20059;-61
2023/08/05 00:58:46;;;;;;;6.22;4.13;;;18.90;63.70;;;;;;4927906;28;20060;-56
2023/08/05 01:01:13;;;;;;;6.07;4.90;;;18.90;63.70;;;;;;4949552;23;20490;-57
2023/08/05 01:03:40;;;;;;;10.60;5.22;;;18.90;63.70;;;;;;4946238;28;20059;-57
2023/08/05 01:06:08;;;;;;;5.88;4.50;;;18.90;63.70;;;;;;4946609;28;20061;-56
2023/08/05 01:08:37;;;;;;;11.20;5.55;;;18.90;63.70;;;;;;4945279;28;20055;-56
2023/08/05 01:11:05;;;;;;;8.93;4.40;;;18.90;63.80;;;;;;4945671;28;20051;-56
2023/08/05 01:13:32;;;;;;;8.10;5.45;;;18.90;63.80;;;;;;4944317;28;20070;-56
2023/08/05 01:16:01;;;;;;;8.02;4.88;;;18.90;63.90;;;;;;4945609;28;20058;-56
2023/08/05 01:18:29;;;;;;;7.25;4.18;;;18.90;64.00;;;;;;4945088;28;20430;-56
2023/08/05 01:20:58;;;;;;;5.90;4.28;;;18.90;64.00;;;;;;4945863;28;20059;-56
2023/08/05 01:23:34;;;;;;;7.22;4.65;;;18.90;63.90;;;;;;4942804;28;20047;-56
2023/08/05 01:26:04;;;;;;;4.97;4.10;;;18.90;64.00;;;;;;4945574;28;20047;-56
2023/08/05 01:28:32;;;;;;;5.03;4.32;;;18.90;64.00;;;;;;4945247;28;20055;-56
2023/08/05 01:31:01;;;;;;;6.13;4.90;;;18.90;63.90;;;;;;4945779;28;20055;-56
2023/08/05 01:33:29;;;;;;;12.73;5.90;;;18.90;63.90;;;;;;4944911;28;20512;-56
2023/08/05 01:35:56;;;;;;;6.55;5.22;;;18.90;63.80;;;;;;4945367;28;20067;-56
2023/08/05 01:38:24;;;;;;;8.93;5.45;;;18.90;63.80;;;;;;4943781;28;20058;-56
2023/08/05 01:40:51;;;;;;;10.90;6.93;;;18.90;63.90;;;;;;4946080;28;20058;-56
2023/08/05 01:43:20;;;;;;;10.82;7.43;;;18.90;63.70;;;;;;4944407;28;20075;-56
2023/08/05 01:45:47;;;;;;;10.23;6.57;;;18.90;63.60;;;;;;4946345;28;20070;-56
2023/08/05 01:48:14;;;;;;;10.88;6.57;;;18.80;63.50;;;;;;4943680;28;20062;-57
2023/08/05 01:50:41;;;;;;;11.70;6.70;;;18.80;63.60;;;;;;4945293;28;20051;-56
2023/08/05 01:53:09;;;;;;;11.68;7.22;;;18.80;63.70;;;;;;4945270;28;20066;-55
2023/08/05 01:55:36;;;;;;;11.02;8.18;;;18.80;63.60;;;;;;4945260;28;20054;-56
2023/08/05 01:58:03;;;;;;;11.38;7.88;;;18.80;63.60;;;;;;4943302;28;20331;-56
2023/08/05 02:00:32;;;;;;;11.75;8.27;;;18.80;63.60;;;;;;4944654;28;20368;-56
2023/08/05 02:02:59;;;;;;;9.45;7.32;;;18.70;63.50;;;;;;4945667;28;20497;-56
2023/08/05 02:05:26;;;;;;;10.98;7.45;;;18.70;63.50;;;;;;4945473;28;20057;-56
2023/08/05 02:07:53;;;;;;;11.10;7.97;;;18.70;63.50;;;;;;4944826;28;20055;-56
2023/08/05 02:10:21;;;;;;;10.38;6.95;;;18.60;63.50;;;;;;4945625;28;20495;-56
2023/08/05 02:12:48;;;;;;;11.50;7.38;;;18.60;63.40;;;;;;4943946;28;20530;-47
2023/08/05 02:15:15;;;;;;;11.18;6.97;;;18.60;63.40;;;;;;4944645;28;20058;-48
2023/08/05 02:17:44;;;;;;;9.82;5.57;;;18.60;63.50;;;;;;4943765;28;20069;-49
2023/08/05 02:20:12;;;;;;;6.30;4.63;;;18.60;63.40;;;;;;4944897;28;20055;-48
2023/08/05 02:22:39;;;;;;;4.70;4.20;;;18.60;63.50;;;;;;4943534;28;20070;-50
2023/08/05 02:25:07;;;;;;;5.43;3.05;;;18.50;63.40;;;;;;4942249;28;20055;-50
2023/08/05 02:27:34;;;;;;;4.03;2.85;;;18.50;63.30;;;;;;4943438;28;20063;-49
2023/08/05 02:30:02;;;;;;;3.67;2.92;;;18.50;63.30;;;;;;4944788;28;20058;-53
2023/08/05 02:32:29;;;;;;;6.85;5.13;;;18.50;63.20;;;;;;4942962;28;20439;-51
2023/08/05 02:34:58;;;;;;;9.25;5.70;;;18.50;63.00;;;;;;4944099;28;20069;-48
2023/08/05 02:37:25;;;;;;;8.68;5.72;;;18.50;62.90;;;;;;4944134;28;20062;-48
2023/08/05 02:39:53;;;;;;;6.82;5.63;;;18.50;62.80;;;;;;4945308;28;20055;-49
2023/08/05 02:42:20;;;;;;;5.47;4.65;;;18.40;62.80;;;;;;4943088;28;20051;-50
2023/08/05 02:44:47;;;;;;;6.28;5.60;;;18.40;62.80;;;;;;4943974;28;20059;-48
2023/08/05 02:47:14;;;;;;;10.25;5.18;;;18.40;62.80;;;;;;4944852;28;20066;-47
2023/08/05 02:49:42;;;;;;;7.60;5.55;;;18.40;62.90;;;;;;4943888;28;20507;-48
2023/08/05 02:52:11;;;;;;;12.63;6.40;;;18.40;62.80;;;;;;4944821;28;20070;-50
2023/08/05 02:54:38;;;;;;;9.25;6.15;;;18.30;62.80;;;;;;4944540;28;20061;-46
2023/08/05 02:57:05;;;;;;;10.32;6.60;;;18.30;62.80;;;;;;4942511;28;20058;-49
2023/08/05 02:59:32;;;;;;;8.27;6.53;;;18.30;62.90;;;;;;4944356;28;20057;-48
2023/08/05 03:02:00;;;;;;;11.55;7.35;;;18.30;63.00;;;;;;4943020;28;20078;-47
2023/08/05 03:04:27;;;;;;;8.73;6.88;;;18.20;63.00;;;;;;4943836;28;20655;-49
2023/08/05 03:06:54;;;;;;;12.07;7.43;;;18.20;63.10;;;;;;4943407;28;20055;-49
2023/08/05 03:09:23;;;;;;;10.05;6.45;;;18.20;63.10;;;;;;4943017;28;20074;-48
2023/08/05 03:11:50;;;;;;;9.30;5.93;;;18.20;63.20;;;;;;4942353;28;20513;-47
2023/08/05 03:14:17;;;;;;;9.95;6.65;;;18.20;63.20;;;;;;4943753;28;20502;-50
2023/08/05 03:16:44;;;;;;;10.40;6.40;;;18.20;63.30;;;;;;4944012;28;20062;-48
2023/08/05 03:19:11;;;;;;;10.40;6.63;;;18.20;63.30;;;;;;4943938;28;20065;-49
2023/08/05 03:21:38;;;;;;;13.68;6.93;;;18.20;63.20;;;;;;4944003;28;20043;-55
2023/08/05 03:24:05;;;;;;;11.70;7.32;;;18.10;63.20;;;;;;4943602;28;20525;-56
2023/08/05 03:26:34;;;;;;;10.13;6.90;;;18.10;63.20;;;;;;4943576;28;20411;-56
2023/08/05 03:29:01;;;;;;;13.05;7.55;;;18.10;63.30;;;;;;4941630;28;20426;-56
2023/08/05 03:31:28;;;;;;;9.32;7.03;;;18.10;63.40;;;;;;4942988;28;20058;-55
2023/08/05 03:33:55;;;;;;;11.70;7.38;;;18.10;63.50;;;;;;4944035;28;20051;-55
2023/08/05 03:36:23;;;;;;;11.77;6.80;;;18.00;63.50;;;;;;4943977;28;20050;-54
2023/08/05 03:38:51;;;;;;;10.50;6.72;;;18.00;63.60;;;;;;4942878;28;20067;-54
2023/08/05 03:41:19;;;;;;;9.77;6.53;;;18.00;63.70;;;;;;4943146;28;20502;-55
2023/08/05 03:43:47;;;;;;;12.65;6.22;;;17.90;63.60;;;;;;4944807;28;20063;-56
2023/08/05 03:46:14;;;;;;;14.68;7.50;;;17.90;63.70;;;;;;4943670;28;20062;-55
2023/08/05 03:48:42;;;;;;;9.48;6.38;;;17.90;63.70;;;;;;4944307;28;20054;-55
2023/08/05 03:51:09;;;;;;;9.90;6.18;;;17.90;63.70;;;;;;4943696;28;20066;-56
2023/08/05 03:53:36;;;;;;;10.93;6.80;;;17.90;63.70;;;;;;4945224;28;20051;-55
2023/08/05 03:56:03;;;;;;;7.88;5.65;;;17.80;63.60;;;;;;4942188;28;20074;-53
2023/08/05 03:58:31;;;;;;;9.73;5.78;;;17.80;63.70;;;;;;4943494;28;20058;-55
2023/08/05 04:01:00;;;;;;;11.23;5.63;;;17.80;63.70;;;;;;4943167;28;20507;-56
2023/08/05 04:03:28;;;;;;;10.18;6.18;;;17.80;63.80;;;;;;4943523;28;20500;-55
2023/08/05 04:05:56;;;;;;;6.97;5.72;;;17.80;63.70;;;;;;4942696;28;20055;-56
2023/08/05 04:08:23;;;;;;;9.27;5.90;;;17.80;63.70;;;;;;4944056;28;20414;-56
2023/08/05 04:10:50;;;;;;;10.45;6.03;;;17.80;63.70;;;;;;4943052;28;20059;-55
2023/08/05 04:13:18;;;;;;;10.35;6.53;;;17.70;63.70;;;;;;4941010;28;20396;-55
2023/08/05 04:15:45;;;;;;;9.23;5.75;;;17.80;63.70;;;;;;4943526;28;20053;-55
2023/08/05 04:18:14;;;;;;;6.63;5.05;;;17.80;63.60;;;;;;4944686;28;20078;-56
2023/08/05 04:20:41;;;;;;;9.38;5.55;;;17.70;63.50;;;;;;4942852;28;20529;-55
2023/08/05 04:23:09;;;;;;;9.93;5.15;;;17.80;63.50;;;;;;4943384;28;20043;-55
2023/08/05 04:25:36;;;;;;;10.05;6.35;;;17.80;63.60;;;;;;4942151;28;20061;-56
2023/08/05 04:28:03;;;;;;;14.35;8.68;;;17.70;63.60;;;;;;4941514;28;20419;-55
2023/08/05 04:30:31;;;;;;;9.05;6.82;;;17.70;63.70;;;;;;4942594;28;20051;-56
2023/08/05 04:32:58;;;;;;;7.90;5.50;;;17.70;63.70;;;;;;4943679;28;20054;-55
2023/08/05 04:35:27;;;;;;;8.60;5.68;;;17.70;63.80;;;;;;4944795;28;20385;-49
2023/08/05 04:37:54;;;;;;;9.95;5.85;;;17.70;63.90;;;;;;4943003;28;20522;-48
2023/08/05 04:40:21;;;;;;;6.80;5.47;;;17.70;63.90;;;;;;4942905;28;20063;-48
2023/08/05 04:42:48;;;;;;;6.15;4.80;;;17.70;64.00;;;;;;4941845;28;20411;-49
2023/08/05 04:45:16;;;;;;;5.78;4.82;;;17.70;64.10;;;;;;4942627;28;20062;-49
2023/08/05 04:47:43;;;;;;;7.25;5.57;;;17.80;64.30;;;;;;4942470;28;20058;-50
2023/08/05 04:50:10;;;;;;;4.68;3.83;;;17.70;64.20;;;;;;4943090;28;20062;-51
2023/08/05 04:52:39;;;;;;;4.15;3.55;;;17.80;64.10;;;;;;4944737;28;20051;-51
2023/08/05 04:55:10;;;;;;;7.57;4.70;;;17.80;64.00;;;;;;4942538;28;20059;-48
2023/08/05 04:57:37;;;;;;;7.90;4.90;;;17.80;63.80;;;;;;4942356;28;20051;-49
2023/08/05 05:00:06;;;;;;;5.90;4.63;;;17.80;63.60;;;;;;4945888;28;20055;-49
2023/08/05 05:02:33;;;;;;;7.07;5.05;;;17.80;63.60;;;;;;4946315;28;20047;-48
2023/08/05 05:05:00;;;;;;;7.97;5.45;;;17.90;63.60;;;;;;4945887;28;20510;-48
2023/08/05 05:07:27;;;;;;;8.90;5.50;;;17.90;63.70;;;;;;4945667;28;20059;-46
2023/08/05 05:09:56;;;;;;;8.90;4.95;;;17.90;63.90;;;;;;4947640;28;20055;-46
2023/08/05 05:12:23;;;;;;;7.45;5.18;;;17.90;64.10;;;;;;4944891;28;20059;-49
2023/08/05 05:14:50;;;;;;;10.57;4.57;;;17.90;64.20;;;;;;4943711;28;20055;-51
2023/08/05 05:17:18;;;;;;;5.40;4.07;;;18.00;64.50;;;;;;4945560;28;20062;-49
2023/08/05 05:19:46;;;;;;;12.00;6.30;;;18.00;64.70;;;;;;4944920;28;20059;-48
2023/08/05 05:22:16;;;;;;;6.90;4.78;;;18.00;64.80;;;;;;4945826;28;20050;-46
2023/08/05 05:24:44;;;;;;;6.38;5.05;;;18.00;65.00;;;;;;4947558;28;20059;-50
2023/08/05 05:27:13;;;;;;;5.97;4.72;;;18.10;65.00;;;;;;4942033;28;20055;-47
2023/08/05 05:29:41;;;;;;;7.18;4.45;;;18.10;64.90;;;;;;4942619;28;20055;-47
2023/08/05 05:32:09;;;;;;;6.53;4.78;;;18.20;64.90;;;;;;4946014;28;20514;-46
2023/08/05 05:34:36;;;;;;;9.23;4.50;;;18.20;64.70;;;;;;4945030;28;20488;-49
2023/08/05 05:37:04;;;;;;;6.05;5.30;;;18.30;64.70;;;;;;4945158;28;20063;-49
2023/08/05 05:39:32;;;;;;;6.55;5.13;;;18.30;64.60;;;;;;4944120;28;20250;-55
2023/08/05 05:42:00;;;;;;;6.40;5.00;;;18.30;64.60;;;;;;4946009;28;20059;-56
2023/08/05 05:44:30;;;;;;;6.05;4.95;;;18.30;64.60;;;;;;4945190;28;20059;-54
2023/08/05 05:46:59;;;;;;;7.63;4.82;;;18.40;64.60;;;;;;4944953;28;20066;-56
2023/08/05 05:49:28;;;;;;;6.65;4.90;;;18.40;64.60;;;;;;4944919;28;20081;-56
2023/08/05 05:51:55;;;;;;;7.22;5.25;;;18.40;64.50;;;;;;4945282;28;20059;-56
2023/08/05 05:54:23;;;;;;;7.45;5.28;;;18.50;64.50;;;;;;4944653;28;20114;-55
2023/08/05 05:56:51;;;;;;;7.10;4.88;;;18.50;64.40;;;;;;4943675;28;20083;-53
2023/08/05 05:59:18;;;;;;;5.20;4.65;;;18.50;64.40;;;;;;4945839;28;20054;-56
2023/08/05 06:01:47;;;;;;;6.25;5.25;;;18.50;64.40;;;;;;4943067;28;20077;-54
2023/08/05 06:04:15;;;;;;;10.98;5.75;;;18.60;64.50;;;;;;4945043;28;20051;-56
2023/08/05 06:06:42;;;;;;;6.50;5.10;;;18.60;64.50;;;;;;4945434;28;20412;-54
2023/08/05 06:09:10;;;;;;;6.07;5.13;;;18.60;64.50;;;;;;4944480;28;20047;-55
2023/08/05 06:11:37;;;;;;;8.18;5.47;;;18.60;64.50;;;;;;4944019;28;20055;-55
2023/08/05 06:14:05;;;;;;;7.70;5.28;;;18.70;64.60;;;;;;4945538;28;20418;-55
2023/08/05 06:16:32;;;;;;;6.63;5.57;;;18.70;64.60;;;;;;4945948;28;20066;-55
2023/08/05 06:19:01;;;;;;;17.95;5.68;;;18.70;64.70;;;;;;4945554;28;20062;-55
2023/08/05 06:21:29;;;;;;;8.95;5.55;;;18.80;64.90;;;;;;4944703;28;20070;-55
2023/08/05 06:23:56;;;;;;;7.45;5.75;;;18.80;64.90;;;;;;4945578;28;20099;-56
2023/08/05 06:26:24;;;;;;;9.80;6.82;;;18.80;64.90;;;;;;4943642;28;20063;-56
2023/08/05 06:28:52;;;;;;;16.55;10.90;;;18.90;65.00;;;;;;4943410;28;20070;-56
2023/08/05 06:31:19;;;;;;;30.95;18.63;;;18.90;65.00;;;;;;4943658;28;20094;-56
2023/08/05 06:33:47;;;;;;;38.10;23.13;;;18.90;64.80;;;;;;4945461;28;20407;-55
2023/08/05 06:36:15;;;;;;;35.25;21.85;;;19.00;64.80;;;;;;4944310;28;20055;-56
2023/08/05 06:38:43;;;;;;;32.30;19.05;;;19.00;64.80;;;;;;4944133;28;20061;-56
2023/08/05 06:41:11;;;;;;;31.70;16.50;;;19.10;64.90;;;;;;4942638;28;20058;-55
2023/08/05 06:43:38;;;;;;;33.95;19.85;;;19.10;64.80;;;;;;4943066;28;20059;-55
2023/08/05 06:46:06;;;;;;;33.58;20.70;;;19.10;65.00;;;;;;4944058;28;20059;-54
2023/08/05 06:48:33;;;;;;;31.83;20.85;;;19.20;64.80;;;;;;4943035;28;20067;-55
2023/08/05 06:51:01;;;;;;;27.52;18.40;;;19.20;64.70;;;;;;4945233;28;20064;-55
2023/08/05 06:53:30;;;;;;;33.33;20.38;;;19.20;64.60;;;;;;4945529;28;20051;-47
2023/08/05 06:56:04;;;;;;;30.35;20.13;;;19.30;64.60;;;;;;4944406;28;20055;-53
2023/08/05 06:58:32;;;;;;;33.88;20.92;;;19.30;64.50;;;;;;4943582;28;20066;-47
2023/08/05 07:01:00;;;;;;;32.70;21.17;;;19.30;64.40;;;;;;4943276;28;20058;-48
2023/08/05 07:03:28;;;;;;;30.88;20.00;;;19.30;64.40;;;;;;4944398;28;20066;-48
2023/08/05 07:05:56;;;;;;;31.88;20.50;;;19.40;64.30;;;;;;4944476;28;20061;-51
2023/08/05 07:08:25;;;;;;;32.65;20.58;;;19.40;64.20;;;;;;4945072;28;20051;-47
2023/08/05 07:10:58;;;;;;;37.33;21.75;;;19.50;64.10;;;;;;4944593;28;20062;-47
2023/08/05 07:13:25;;;;;;;37.38;22.55;;;19.50;63.80;;;;;;4942791;28;20039;-51
2023/08/05 07:15:59;;;;;;;34.03;20.85;;;19.50;63.60;;;;;;4944490;28;20066;-48
2023/08/05 07:18:26;;;;;;;30.88;19.75;;;19.50;63.20;;;;;;4944074;28;20500;-50
2023/08/05 07:20:54;;;;;;;32.65;20.73;;;19.60;63.20;;;;;;4943675;28;20392;-48
2023/08/05 07:23:21;;;;;;;28.92;18.85;;;19.60;63.10;;;;;;4943450;28;20062;-47
2023/08/05 07:25:48;;;;;;;30.40;19.05;;;19.60;63.20;;;;;;4945325;28;20062;-48
2023/08/05 07:28:17;;;;;;;28.50;18.42;;;19.60;63.40;;;;;;4941158;28;20062;-47
2023/08/05 07:30:44;;;;;;;26.52;15.77;;;19.60;63.50;;;;;;4942188;28;20491;-48
2023/08/05 07:33:12;;;;;;;28.23;16.95;;;19.60;63.40;;;;;;4943726;28;20384;-48
2023/08/05 07:35:40;;;;;;;28.25;18.20;;;19.70;63.30;;;;;;4943295;28;20054;-51
2023/08/05 07:38:10;;;;;;;32.60;20.48;;;19.70;63.30;;;;;;4942705;28;20081;-48
2023/08/05 07:40:38;;;;;;;33.40;21.35;;;19.80;63.30;;;;;;4944041;28;20533;-50
2023/08/05 07:43:08;;;;;;;37.75;22.13;;;19.80;63.40;;;;;;4942238;28;20050;-49
2023/08/05 07:45:37;;;;;;;34.30;20.13;;;19.80;63.50;;;;;;4942566;28;20065;-48
2023/08/05 07:48:08;;;;;;;31.88;18.58;;;19.80;63.40;;;;;;4943850;28;20077;-51
2023/08/05 07:50:35;;;;;;;37.65;22.02;;;19.80;63.30;;;;;;4943939;28;20487;-48
2023/08/05 07:53:04;;;;;;;28.25;18.58;;;19.90;63.30;;;;;;4944050;28;20055;-50
2023/08/05 07:55:33;;;;;;;27.77;18.27;;;19.90;63.20;;;;;;4941497;28;20479;-50
2023/08/05 07:58:01;;;;;;;26.35;16.35;;;19.90;63.20;;;;;;4942275;28;20058;-50
2023/08/05 08:00:28;;;;;;;19.38;14.68;;;19.90;63.20;;;;;;4939854;28;20071;-48
2023/08/05 08:02:57;;;;;;;25.67;14.73;;;19.90;63.20;;;;;;4943139;28;20400;-55
2023/08/05 08:05:24;;;;;;;25.05;15.68;;;19.90;63.20;;;;;;4942516;28;20571;-57
2023/08/05 08:07:52;;;;;;;22.35;14.90;;;20.00;63.30;;;;;;4942635;28;20059;-56
2023/08/05 08:10:24;;;;;;;25.38;16.48;;;20.00;63.30;;;;;;4942746;28;20051;-57
2023/08/05 08:12:52;;;;;;;23.02;14.20;;;20.10;63.30;;;;;;4942110;28;20059;-57
2023/08/05 08:15:19;;;;;;;20.55;14.60;;;20.10;63.20;;;;;;4944363;28;20047;-56
2023/08/05 08:17:46;;;;;;;21.90;13.05;;;20.20;63.00;;;;;;4945463;28;20066;-56
2023/08/05 08:20:15;;;;;;;17.88;13.05;;;20.20;62.70;;;;;;4945824;28;20082;-57
2023/08/05 08:22:42;;;;;;;17.02;12.45;;;20.20;62.60;;;;;;4944383;28;20055;-56
2023/08/05 08:25:10;;;;;;;13.77;11.15;;;20.20;62.50;;;;;;4941694;28;20368;-56
2023/08/05 08:27:37;;;;;;;15.40;10.60;;;20.20;62.60;;;;;;4943671;28;20051;-56
2023/08/05 08:30:05;;;;;;;17.67;10.27;;;20.30;62.60;;;;;;4942796;28;20059;-56
2023/08/05 08:32:33;;;;;;;15.68;10.95;;;20.30;62.40;;;;;;4946906;28;20059;-57
2023/08/05 08:35:00;;;;;;;18.83;11.45;;;20.40;62.10;;;;;;4949040;28;20403;-56
2023/08/05 08:37:28;;;;;;;13.98;10.13;;;20.40;61.80;;;;;;4945344;28;20055;-57
2023/08/05 08:39:56;;;;;;;13.23;9.32;;;20.40;61.50;;;;;;4946169;28;20481;-57
2023/08/05 08:42:26;;;;;;;15.75;9.23;;;20.40;61.50;;;;;;4946594;28;20501;-56
2023/08/05 08:44:54;;;;;;;14.05;9.60;;;20.40;61.30;;;;;;4946876;28;20150;-55
2023/08/05 08:47:23;;;;;;;14.88;9.13;;;20.50;61.30;;;;;;4947088;28;20082;-57
2023/08/05 08:49:53;;;;;;;12.38;9.20;;;20.50;61.40;;;;;;4946786;28;20407;-56
2023/08/05 08:52:21;;;;;;;12.25;8.45;;;20.40;61.40;;;;;;4946498;28;21303;-56
2023/08/05 08:54:52;;;;;;;15.82;9.23;;;20.50;61.20;;;;;;4945095;28;20066;-56
2023/08/05 08:57:19;;;;;;;12.60;8.85;;;20.50;60.40;;;;;;4945471;28;20062;-56
2023/08/05 08:59:47;;;;;;;14.63;8.63;;;20.50;60.50;;;;;;4946121;28;20047;-57
2023/08/05 09:02:23;;;;;;;11.73;8.40;;;20.50;60.50;;;;;;4945584;28;20063;-56
2023/08/05 09:04:52;;;;;;;11.77;7.20;;;20.50;60.40;;;;;;4945525;28;20406;-54
2023/08/05 09:07:21;;;;;;;10.80;8.02;;;20.50;60.60;;;;;;4946198;28;20051;-58
2023/08/05 09:09:50;;;;;;;12.90;7.32;;;20.60;60.70;;;;;;4945568;28;20072;-56
2023/08/05 09:12:17;;;;;;;10.13;7.15;;;20.60;60.80;;;;;;4945092;28;20499;-53
2023/08/05 09:14:45;;;;;;;11.48;7.60;;;20.60;61.00;;;;;;4945958;28;20056;-57
2023/08/05 09:17:14;;;;;;;18.60;11.80;;;20.60;61.00;;;;;;4946417;28;20062;-57
2023/08/05 09:19:43;;;;;;;70.78;35.30;;;20.60;60.90;;;;;;4945358;28;20059;-57
2023/08/05 09:22:10;;;;;;;26.15;14.13;;;20.60;60.70;;;;;;4945414;28;20050;-56
2023/08/05 09:24:37;;;;;;;19.80;9.32;;;20.60;60.60;;;;;;4946287;28;20051;-57
2023/08/05 09:27:07;;;;;;;13.00;8.93;;;20.70;60.70;;;;;;4943788;28;20061;-60
2023/08/05 09:29:36;;;;;;;13.55;9.05;;;20.70;61.10;;;;;;4945430;28;20059;-55
2023/08/05 09:32:04;;;;;;;14.82;9.18;;;20.70;60.30;;;;;;4946038;28;20059;-57
2023/08/05 09:34:33;;;;;;;13.77;9.02;;;20.70;60.30;;;;;;4945644;28;20070;-56
2023/08/05 09:37:01;;;;;;;13.68;9.63;;;20.70;60.30;;;;;;4945806;28;20467;-57
2023/08/05 09:39:43;;;;;;;10.95;8.98;;;20.70;60.10;;;;;;4946564;28;20051;-56
2023/08/05 09:42:23;;;;;;;13.20;9.55;;;20.80;60.00;;;;;;4943782;28;20066;-58
2023/08/05 09:44:52;;;;;;;12.73;9.57;;;20.80;60.70;;;;;;4945239;28;20063;-57
2023/08/05 09:47:23;;;;;;;12.27;8.73;;;20.80;60.20;;;;;;4945041;28;20055;-57
2023/08/05 09:49:52;;;;;;;10.18;7.88;;;20.80;60.10;;;;;;4945486;28;20081;-57
2023/08/05 09:52:21;;;;;;;10.32;7.97;;;20.80;59.90;;;;;;4944779;28;20428;-56
2023/08/05 09:54:57;;;;;;;10.30;8.25;;;20.90;60.00;;;;;;4944790;28;20055;-56
2023/08/05 09:57:26;;;;;;;11.50;8.27;;;20.90;59.60;;;;;;4945681;28;20495;-56
2023/08/05 09:59:54;;;;;;;9.98;7.65;;;21.00;59.70;;;;;;4945312;28;20061;-57
2023/08/05 10:02:25;;;;;;;10.10;6.97;;;21.00;59.60;;;;;;4945432;28;20055;-56
2023/08/05 10:04:54;;;;;;;9.85;6.70;;;21.00;59.50;;;;;;4945564;28;20081;-55
2023/08/05 10:07:22;;;;;;;8.18;5.75;;;21.10;59.30;;;;;;4944307;28;20059;-56
2023/08/05 10:09:50;;;;;;;7.07;4.70;;;21.10;59.00;;;;;;4944179;28;20986;-57
2023/08/05 10:12:21;;;;;;;7.40;4.82;;;21.10;58.90;;;;;;4943503;28;20055;-55
2023/08/05 10:14:50;;;;;;;8.80;5.00;;;21.20;59.00;;;;;;4945701;28;20073;-55
2023/08/05 10:17:18;;;;;;;7.47;4.85;;;21.20;58.70;;;;;;4945130;28;20066;-55
2023/08/05 10:19:48;;;;;;;7.88;4.85;;;21.20;58.50;;;;;;4942263;28;20066;-56
2023/08/05 10:22:21;;;;;;;6.50;4.32;;;21.20;58.50;;;;;;4944201;28;20059;-56
2023/08/05 10:24:52;;;;;;;4.38;3.80;;;21.20;58.20;;;;;;4943823;28;20447;-59
2023/08/05 10:27:36;;;;;;;5.80;3.97;;;21.30;58.40;;;;;;4943469;28;20378;-56
2023/08/05 10:30:13;;;;;;;6.65;4.60;;;21.30;58.00;;;;;;4944048;28;20062;-55
2023/08/05 10:32:50;;;;;;;15.75;4.00;;;21.30;57.90;;;;;;4944804;28;20051;-56
2023/08/05 10:35:28;;;;;;;5.40;3.60;;;21.40;58.30;;;;;;4944185;28;20496;-56
2023/08/05 10:38:09;;;;;;;4.20;3.13;;;21.40;57.50;;;;;;4945292;28;20051;-55
2023/08/05 10:40:37;;;;;;;10.65;3.67;;;21.40;57.60;;;;;;4942507;28;20057;-55
2023/08/05 10:43:05;;;;;;;5.35;3.35;;;21.50;57.80;;;;;;4942241;28;20051;-54
2023/08/05 10:45:35;;;;;;;6.28;3.38;;;21.50;57.70;;;;;;4944387;28;20051;-54
2023/08/05 10:48:08;;;;;;;4.70;3.10;;;21.50;57.50;;;;;;4945557;28;20066;-54
2023/08/05 10:50:36;;;;;;;4.00;3.25;;;21.50;57.40;;;;;;4943337;28;20415;-50
2023/08/05 10:53:06;;;;;;;5.38;3.75;;;21.60;57.40;;;;;;4944453;28;20055;-55
2023/08/05 10:55:45;;;;;;;4.15;3.00;;;21.60;57.10;;;;;;4943137;28;20055;-55
2023/08/05 10:58:13;;;;;;;3.95;3.10;;;21.60;56.90;;;;;;4942957;28;20055;-54
2023/08/05 11:00:44;;;;;;;3.75;3.22;;;21.60;57.20;;;;;;4943574;28;20058;-55
2023/08/05 11:03:42;;;;;;;4.20;3.40;;;21.60;57.10;;;;;;4945058;28;20070;-55
2023/08/05 11:06:11;;;;;;;3.28;2.90;;;21.70;57.00;;;;;;4902186;28;20444;-55
2023/08/05 11:08:40;;;;;;;5.13;3.40;;;21.70;57.40;;;;;;4943808;28;20051;-55
2023/08/05 11:11:08;;;;;;;4.35;3.35;;;21.70;57.40;;;;;;4943372;28;20062;-55
2023/08/05 11:13:37;;;;;;;5.15;3.13;;;21.80;57.60;;;;;;4943453;28;20383;-55
2023/08/05 11:16:08;;;;;;;3.70;2.90;;;21.80;57.70;;;;;;4944050;28;20055;-55
2023/08/05 11:18:36;;;;;;;5.57;3.28;;;21.80;57.80;;;;;;4943842;28;20047;-55
2023/08/05 11:21:05;;;;;;;5.53;3.15;;;21.80;57.90;;;;;;4943580;28;20051;-55
2023/08/05 11:23:33;;;;;;;4.55;3.08;;;21.90;57.90;;;;;;4945872;28;21432;-55
2023/08/05 11:26:01;;;;;;;3.97;2.75;;;21.90;58.40;;;;;;4944158;28;20051;-54
2023/08/05 11:28:29;;;;;;;6.88;3.42;;;21.90;57.80;;;;;;4943994;28;20055;-55
2023/08/05 11:30:57;;;;;;;4.47;3.22;;;22.00;58.00;;;;;;4944555;28;21203;-55
2023/08/05 11:33:25;;;;;;;3.15;2.83;;;22.00;58.00;;;;;;4944369;28;20419;-58
2023/08/05 11:35:53;;;;;;;4.03;2.67;;;22.10;58.30;;;;;;4934918;28;20407;-55
2023/08/05 11:38:22;;;;;;;3.33;2.63;;;22.10;58.20;;;;;;4924835;28;20055;-55
2023/08/05 11:40:52;;;;;;;6.15;2.90;;;22.20;57.90;;;;;;4925888;28;20059;-55
2023/08/05 11:43:20;;;;;;;4.00;3.00;;;22.30;57.80;;;;;;4923175;28;20074;-56
2023/08/05 11:45:48;;;;;;;4.45;2.75;;;22.30;57.90;;;;;;4923621;28;20056;-56
2023/08/05 11:48:20;;;;;;;4.07;3.30;;;22.40;57.80;;;;;;4925808;28;20423;-55
2023/08/05 11:50:49;;;;;;;3.90;3.47;;;22.50;57.50;;;;;;4924014;28;20056;-56
2023/08/05 11:53:17;;;;;;;4.68;2.88;;;22.50;57.20;;;;;;4924315;28;20059;-55
2023/08/05 11:55:46;;;;;;;6.35;2.80;;;22.60;57.00;;;;;;4924896;28;20055;-55
2023/08/05 11:58:14;;;;;;;3.67;2.70;;;22.60;57.00;;;;;;4922541;28;20047;-55
2023/08/05 12:00:46;;;;;;;3.75;2.80;;;22.70;56.70;;;;;;4923024;28;20352;-55
2023/08/05 12:03:14;;;;;;;2.97;2.42;;;22.70;56.50;;;;;;4924213;28;20051;-55
2023/08/05 12:05:42;;;;;;;2.83;2.30;;;22.80;56.60;;;;;;4925068;28;20055;-55
2023/08/05 12:08:12;;;;;;;3.97;2.40;;;22.80;56.60;;;;;;4927661;28;20095;-55
2023/08/05 12:10:40;;;;;;;2.88;2.13;;;22.80;55.90;;;;;;4927207;28;20407;-53
2023/08/05 12:13:09;;;;;;;2.80;2.38;;;22.90;55.50;;;;;;4926955;28;20056;-54
2023/08/05 12:15:36;;;;;;;3.17;1.95;;;22.90;55.50;;;;;;4928030;28;20070;-55
2023/08/05 12:18:05;;;;;;;4.13;2.08;;;23.00;55.20;;;;;;4927504;28;20060;-55
2023/08/05 12:20:34;;;;;;;3.25;2.25;;;22.90;54.90;;;;;;4929153;28;20443;-55
2023/08/05 12:23:02;;;;;;;2.30;1.98;;;23.00;54.60;;;;;;4928220;28;20062;-54
2023/08/05 12:25:32;;;;;;;4.65;1.73;;;23.00;54.40;;;;;;4928075;28;20052;-53
2023/08/05 12:27:59;;;;;;;3.45;1.80;;;23.00;54.10;;;;;;4925297;28;20052;-55
2023/08/05 12:30:27;;;;;;;5.57;1.85;;;23.10;54.00;;;;;;4928748;28;20085;-56
2023/08/05 12:32:57;;;;;;;2.33;1.50;;;23.10;54.00;;;;;;4928263;28;20066;-54
2023/08/05 12:35:25;;;;;;;3.97;1.75;;;23.10;53.60;;;;;;4927958;28;20051;-54
2023/08/05 12:37:53;;;;;;;7.07;1.88;;;23.10;53.50;;;;;;4927131;28;20060;-55
2023/08/05 12:40:20;;;;;;;3.15;1.90;;;23.10;53.50;;;;;;4927958;28;20384;-54
2023/08/05 12:42:49;;;;;;;3.78;1.80;;;23.10;53.50;;;;;;4926732;28;20066;-48
2023/08/05 12:45:16;;;;;;;2.35;1.70;;;23.10;53.40;;;;;;4927574;28;20059;-49
2023/08/05 12:47:43;;;;;;;2.80;1.70;;;23.20;53.60;;;;;;4926408;28;20055;-49